Oakvale, West Virginia
Current Conditions -  °F | °C
As of 8:52 AM on Thursday 23 Oct 2014 (Local Time) from KBLF Reporting Station
Overcast Overcast  
Wind Chill: 43°   Ceiling: 1200
Heat Index: 43°   Visibility: 10mi
Dew Point: 37°   Wind: 3mph
Humidity: 80%   Direction: 310°NW
Pressure: 30.17"   Gusts: NA
Location:  37.33°N, 80.96°W
Report Text: KBLF 231252Z AUTO 31003KT 10SM OVC012 06/03 A3017 RMK AO2 SLP217 T00610028
Loading
Personal Weather Stations






























Interactive Weather Map
Tropical Storm Tracking
New forecast layout! Learn more

10-Day Weather Forecast

Advertisements
Track Severe Weather on mobile